sensor_id;sensor_type;location;lat;lon;timestamp;temperature;humidity
23405;DHT22;11875;49.356;2.718;2022-08-25T00:01:10;25.30;92.50
23405;DHT22;11875;49.356;2.718;2022-08-25T00:03:39;25.20;92.70
23405;DHT22;11875;49.356;2.718;2022-08-25T00:06:06;25.20;92.90
23405;DHT22;11875;49.356;2.718;2022-08-25T00:08:32;25.20;93.10
23405;DHT22;11875;49.356;2.718;2022-08-25T00:11:00;25.10;93.30
23405;DHT22;11875;49.356;2.718;2022-08-25T00:13:27;25.00;93.30
23405;DHT22;11875;49.356;2.718;2022-08-25T00:15:53;25.10;93.50
23405;DHT22;11875;49.356;2.718;2022-08-25T00:18:19;25.10;93.70
23405;DHT22;11875;49.356;2.718;2022-08-25T00:20:46;25.00;93.40
23405;DHT22;11875;49.356;2.718;2022-08-25T00:23:11;25.00;93.40
23405;DHT22;11875;49.356;2.718;2022-08-25T00:25:37;25.00;93.20
23405;DHT22;11875;49.356;2.718;2022-08-25T00:28:03;25.00;93.20
23405;DHT22;11875;49.356;2.718;2022-08-25T00:30:28;24.90;93.30
23405;DHT22;11875;49.356;2.718;2022-08-25T00:32:54;24.80;93.30
23405;DHT22;11875;49.356;2.718;2022-08-25T00:35:20;24.80;93.30
23405;DHT22;11875;49.356;2.718;2022-08-25T00:37:47;24.70;92.40
23405;DHT22;11875;49.356;2.718;2022-08-25T00:40:13;24.60;91.90
23405;DHT22;11875;49.356;2.718;2022-08-25T00:42:39;24.60;91.70
23405;DHT22;11875;49.356;2.718;2022-08-25T00:45:07;24.50;92.10
23405;DHT22;11875;49.356;2.718;2022-08-25T00:47:33;24.40;91.70
23405;DHT22;11875;49.356;2.718;2022-08-25T00:50:00;24.40;91.80
23405;DHT22;11875;49.356;2.718;2022-08-25T00:52:44;24.40;92.50
23405;DHT22;11875;49.356;2.718;2022-08-25T00:57:43;24.30;93.50
23405;DHT22;11875;49.356;2.718;2022-08-25T01:00:17;24.20;93.60
23405;DHT22;11875;49.356;2.718;2022-08-25T01:02:44;24.30;93.70
23405;DHT22;11875;49.356;2.718;2022-08-25T01:05:10;24.30;93.90
23405;DHT22;11875;49.356;2.718;2022-08-25T01:07:37;24.30;94.10
23405;DHT22;11875;49.356;2.718;2022-08-25T01:10:05;24.30;94.30
23405;DHT22;11875;49.356;2.718;2022-08-25T01:12:32;24.30;94.50
23405;DHT22;11875;49.356;2.718;2022-08-25T01:14:59;24.20;94.70
23405;DHT22;11875;49.356;2.718;2022-08-25T01:17:34;24.10;94.70
23405;DHT22;11875;49.356;2.718;2022-08-25T01:20:00;24.10;94.90
23405;DHT22;11875;49.356;2.718;2022-08-25T01:22:25;24.10;94.80
23405;DHT22;11875;49.356;2.718;2022-08-25T01:24:58;24.00;95.20
23405;DHT22;11875;49.356;2.718;2022-08-25T01:27:26;24.00;95.20
23405;DHT22;11875;49.356;2.718;2022-08-25T01:29:51;24.00;94.90
23405;DHT22;11875;49.356;2.718;2022-08-25T01:32:17;24.00;95.00
23405;DHT22;11875;49.356;2.718;2022-08-25T01:34:44;24.00;94.90
23405;DHT22;11875;49.356;2.718;2022-08-25T01:37:12;24.00;95.00
23405;DHT22;11875;49.356;2.718;2022-08-25T01:39:38;24.00;94.80
23405;DHT22;11875;49.356;2.718;2022-08-25T01:42:08;23.90;95.00
23405;DHT22;11875;49.356;2.718;2022-08-25T01:44:41;23.90;95.10
23405;DHT22;11875;49.356;2.718;2022-08-25T01:47:08;23.80;95.10
23405;DHT22;11875;49.356;2.718;2022-08-25T01:49:35;23.80;95.10
23405;DHT22;11875;49.356;2.718;2022-08-25T01:52:06;23.80;95.00
23405;DHT22;11875;49.356;2.718;2022-08-25T01:54:34;23.80;95.10
23405;DHT22;11875;49.356;2.718;2022-08-25T01:57:00;23.80;95.10
23405;DHT22;11875;49.356;2.718;2022-08-25T01:59:26;23.70;94.80
23405;DHT22;11875;49.356;2.718;2022-08-25T02:01:52;23.70;94.50
23405;DHT22;11875;49.356;2.718;2022-08-25T02:04:18;23.60;94.70
23405;DHT22;11875;49.356;2.718;2022-08-25T02:06:44;23.60;94.80
23405;DHT22;11875;49.356;2.718;2022-08-25T02:09:13;23.60;94.70
23405;DHT22;11875;49.356;2.718;2022-08-25T02:11:41;23.60;95.00
23405;DHT22;11875;49.356;2.718;2022-08-25T02:14:08;23.50;95.40
23405;DHT22;11875;49.356;2.718;2022-08-25T02:16:37;23.40;95.70
23405;DHT22;11875;49.356;2.718;2022-08-25T02:19:04;23.30;96.00
23405;DHT22;11875;49.356;2.718;2022-08-25T02:21:32;23.20;96.20
23405;DHT22;11875;49.356;2.718;2022-08-25T02:23:58;23.10;96.30
23405;DHT22;11875;49.356;2.718;2022-08-25T02:26:23;23.00;96.60
23405;DHT22;11875;49.356;2.718;2022-08-25T02:28:50;23.00;96.60
23405;DHT22;11875;49.356;2.718;2022-08-25T02:31:18;23.00;96.60
23405;DHT22;11875;49.356;2.718;2022-08-25T02:33:44;23.00;96.50
23405;DHT22;11875;49.356;2.718;2022-08-25T02:36:10;23.00;96.60
23405;DHT22;11875;49.356;2.718;2022-08-25T02:38:36;23.10;96.70
23405;DHT22;11875;49.356;2.718;2022-08-25T02:41:18;23.10;96.70
23405;DHT22;11875;49.356;2.718;2022-08-25T02:43:45;23.10;96.50
23405;DHT22;11875;49.356;2.718;2022-08-25T02:46:14;23.10;96.50
23405;DHT22;11875;49.356;2.718;2022-08-25T02:48:40;23.10;96.70
23405;DHT22;11875;49.356;2.718;2022-08-25T02:51:07;23.00;96.50
23405;DHT22;11875;49.356;2.718;2022-08-25T02:53:35;23.00;96.50
23405;DHT22;11875;49.356;2.718;2022-08-25T02:56:01;23.00;96.60
23405;DHT22;11875;49.356;2.718;2022-08-25T02:58:26;22.90;96.60
23405;DHT22;11875;49.356;2.718;2022-08-25T03:00:53;22.90;96.40
23405;DHT22;11875;49.356;2.718;2022-08-25T03:03:22;22.80;96.60
23405;DHT22;11875;49.356;2.718;2022-08-25T03:05:47;22.70;96.90
23405;DHT22;11875;49.356;2.718;2022-08-25T03:08:13;22.80;96.90
23405;DHT22;11875;49.356;2.718;2022-08-25T03:10:39;22.60;96.70
23405;DHT22;11875;49.356;2.718;2022-08-25T03:13:05;22.60;96.50
23405;DHT22;11875;49.356;2.718;2022-08-25T03:15:31;22.60;96.70
23405;DHT22;11875;49.356;2.718;2022-08-25T03:17:57;22.60;96.80
23405;DHT22;11875;49.356;2.718;2022-08-25T03:20:24;22.60;96.80
23405;DHT22;11875;49.356;2.718;2022-08-25T03:22:50;22.60;96.60
23405;DHT22;11875;49.356;2.718;2022-08-25T03:25:17;22.60;96.90
23405;DHT22;11875;49.356;2.718;2022-08-25T03:28:02;22.60;96.70
23405;DHT22;11875;49.356;2.718;2022-08-25T03:30:28;22.60;97.00
23405;DHT22;11875;49.356;2.718;2022-08-25T03:32:54;22.50;97.10
23405;DHT22;11875;49.356;2.718;2022-08-25T03:35:20;22.50;97.10
23405;DHT22;11875;49.356;2.718;2022-08-25T03:37:46;22.50;96.90
23405;DHT22;11875;49.356;2.718;2022-08-25T03:40:14;22.40;97.30
23405;DHT22;11875;49.356;2.718;2022-08-25T03:42:43;22.20;97.70
23405;DHT22;11875;49.356;2.718;2022-08-25T03:45:10;22.10;97.90
23405;DHT22;11875;49.356;2.718;2022-08-25T03:47:39;21.90;98.20
23405;DHT22;11875;49.356;2.718;2022-08-25T03:50:07;21.80;98.50
23405;DHT22;11875;49.356;2.718;2022-08-25T03:52:33;21.80;98.80
23405;DHT22;11875;49.356;2.718;2022-08-25T03:55:00;21.80;98.90
23405;DHT22;11875;49.356;2.718;2022-08-25T03:57:25;22.00;99.00
23405;DHT22;11875;49.356;2.718;2022-08-25T03:59:51;22.00;98.60
23405;DHT22;11875;49.356;2.718;2022-08-25T04:02:17;22.00;98.50
23405;DHT22;11875;49.356;2.718;2022-08-25T04:04:43;22.00;98.50
23405;DHT22;11875;49.356;2.718;2022-08-25T04:07:08;22.00;98.60
23405;DHT22;11875;49.356;2.718;2022-08-25T04:09:34;22.00;98.70
23405;DHT22;11875;49.356;2.718;2022-08-25T04:12:00;22.10;98.70
23405;DHT22;11875;49.356;2.718;2022-08-25T04:14:25;22.00;98.70
23405;DHT22;11875;49.356;2.718;2022-08-25T04:16:51;22.10;98.80
23405;DHT22;11875;49.356;2.718;2022-08-25T04:19:17;22.10;98.80
23405;DHT22;11875;49.356;2.718;2022-08-25T04:21:43;22.10;98.80
23405;DHT22;11875;49.356;2.718;2022-08-25T04:24:10;22.10;98.80
23405;DHT22;11875;49.356;2.718;2022-08-25T04:26:54;22.10;98.70
23405;DHT22;11875;49.356;2.718;2022-08-25T04:29:22;22.00;98.60
23405;DHT22;11875;49.356;2.718;2022-08-25T04:31:48;22.10;98.60
23405;DHT22;11875;49.356;2.718;2022-08-25T04:34:17;22.00;98.60
23405;DHT22;11875;49.356;2.718;2022-08-25T04:36:43;22.00;98.80
23405;DHT22;11875;49.356;2.718;2022-08-25T04:39:10;21.80;98.80
23405;DHT22;11875;49.356;2.718;2022-08-25T04:41:36;21.80;98.70
23405;DHT22;11875;49.356;2.718;2022-08-25T04:44:02;21.80;98.90
23405;DHT22;11875;49.356;2.718;2022-08-25T04:46:31;21.80;99.20
23405;DHT22;11875;49.356;2.718;2022-08-25T04:48:58;21.80;99.60
23405;DHT22;11875;49.356;2.718;2022-08-25T04:51:32;21.70;99.40
23405;DHT22;11875;49.356;2.718;2022-08-25T04:54:00;21.70;99.50
23405;DHT22;11875;49.356;2.718;2022-08-25T04:56:27;21.60;99.70
23405;DHT22;11875;49.356;2.718;2022-08-25T04:58:54;21.50;99.70
23405;DHT22;11875;49.356;2.718;2022-08-25T05:01:22;21.50;99.80
23405;DHT22;11875;49.356;2.718;2022-08-25T05:03:54;21.40;99.90
23405;DHT22;11875;49.356;2.718;2022-08-25T05:06:20;21.30;99.90
23405;DHT22;11875;49.356;2.718;2022-08-25T05:08:46;21.30;99.90
23405;DHT22;11875;49.356;2.718;2022-08-25T05:11:13;21.20;99.90
23405;DHT22;11875;49.356;2.718;2022-08-25T05:13:40;21.20;99.90
23405;DHT22;11875;49.356;2.718;2022-08-25T05:16:06;21.20;99.90
23405;DHT22;11875;49.356;2.718;2022-08-25T05:18:33;21.30;99.90
23405;DHT22;11875;49.356;2.718;2022-08-25T05:21:07;21.30;99.90
23405;DHT22;11875;49.356;2.718;2022-08-25T05:23:34;21.40;99.90
23405;DHT22;11875;49.356;2.718;2022-08-25T05:26:08;21.40;99.90
23405;DHT22;11875;49.356;2.718;2022-08-25T05:28:36;21.50;99.90
23405;DHT22;11875;49.356;2.718;2022-08-25T05:31:02;21.50;99.90
23405;DHT22;11875;49.356;2.718;2022-08-25T05:33:29;21.50;99.90
23405;DHT22;11875;49.356;2.718;2022-08-25T05:35:55;21.50;99.90
23405;DHT22;11875;49.356;2.718;2022-08-25T05:38:21;21.50;99.90
23405;DHT22;11875;49.356;2.718;2022-08-25T05:40:49;21.50;99.90
23405;DHT22;11875;49.356;2.718;2022-08-25T05:43:15;21.50;99.90
23405;DHT22;11875;49.356;2.718;2022-08-25T05:45:41;21.50;99.90
23405;DHT22;11875;49.356;2.718;2022-08-25T05:48:07;21.40;99.90
23405;DHT22;11875;49.356;2.718;2022-08-25T05:50:33;21.50;99.90
23405;DHT22;11875;49.356;2.718;2022-08-25T05:52:58;21.50;99.90
23405;DHT22;11875;49.356;2.718;2022-08-25T05:55:24;21.60;99.90
23405;DHT22;11875;49.356;2.718;2022-08-25T05:57:50;21.60;99.90
23405;DHT22;11875;49.356;2.718;2022-08-25T06:00:15;21.60;99.90
23405;DHT22;11875;49.356;2.718;2022-08-25T06:02:42;21.60;99.90
23405;DHT22;11875;49.356;2.718;2022-08-25T06:05:29;21.60;99.90
23405;DHT22;11875;49.356;2.718;2022-08-25T06:07:55;21.60;99.90
23405;DHT22;11875;49.356;2.718;2022-08-25T06:10:21;21.50;99.90
23405;DHT22;11875;49.356;2.718;2022-08-25T06:12:47;21.60;99.90
23405;DHT22;11875;49.356;2.718;2022-08-25T06:15:18;21.70;99.90
23405;DHT22;11875;49.356;2.718;2022-08-25T06:17:44;21.70;99.90
23405;DHT22;11875;49.356;2.718;2022-08-25T06:20:19;21.70;99.90
23405;DHT22;11875;49.356;2.718;2022-08-25T06:22:44;21.70;99.90
23405;DHT22;11875;49.356;2.718;2022-08-25T06:25:12;21.80;99.90
23405;DHT22;11875;49.356;2.718;2022-08-25T06:27:39;21.80;99.90
23405;DHT22;11875;49.356;2.718;2022-08-25T06:30:07;21.80;99.90
23405;DHT22;11875;49.356;2.718;2022-08-25T06:32:34;21.90;99.90
23405;DHT22;11875;49.356;2.718;2022-08-25T06:35:07;22.00;99.90
23405;DHT22;11875;49.356;2.718;2022-08-25T06:37:35;22.00;99.90
23405;DHT22;11875;49.356;2.718;2022-08-25T06:40:00;22.10;99.90
23405;DHT22;11875;49.356;2.718;2022-08-25T06:42:26;22.10;99.90
23405;DHT22;11875;49.356;2.718;2022-08-25T06:44:52;22.20;99.90
23405;DHT22;11875;49.356;2.718;2022-08-25T06:47:18;22.20;99.90
23405;DHT22;11875;49.356;2.718;2022-08-25T06:49:44;22.20;99.90
23405;DHT22;11875;49.356;2.718;2022-08-25T06:52:10;22.30;99.90
23405;DHT22;11875;49.356;2.718;2022-08-25T06:54:37;22.20;99.90
23405;DHT22;11875;49.356;2.718;2022-08-25T06:57:03;22.30;99.90
23405;DHT22;11875;49.356;2.718;2022-08-25T06:59:30;22.40;99.90
23405;DHT22;11875;49.356;2.718;2022-08-25T07:01:55;22.40;99.90
23405;DHT22;11875;49.356;2.718;2022-08-25T07:04:21;22.40;99.90
23405;DHT22;11875;49.356;2.718;2022-08-25T07:06:46;22.40;99.90
23405;DHT22;11875;49.356;2.718;2022-08-25T07:09:13;22.40;99.90
23405;DHT22;11875;49.356;2.718;2022-08-25T07:11:42;22.50;99.90
23405;DHT22;11875;49.356;2.718;2022-08-25T07:14:10;22.60;99.90
23405;DHT22;11875;49.356;2.718;2022-08-25T07:16:37;22.60;99.90
23405;DHT22;11875;49.356;2.718;2022-08-25T07:19:04;22.60;99.90
23405;DHT22;11875;49.356;2.718;2022-08-25T07:21:34;22.70;99.90
23405;DHT22;11875;49.356;2.718;2022-08-25T07:24:03;22.70;99.90
23405;DHT22;11875;49.356;2.718;2022-08-25T07:26:31;22.80;99.90
23405;DHT22;11875;49.356;2.718;2022-08-25T07:28:59;23.00;99.90
23405;DHT22;11875;49.356;2.718;2022-08-25T07:31:25;23.20;99.90
23405;DHT22;11875;49.356;2.718;2022-08-25T07:33:51;23.30;99.90
23405;DHT22;11875;49.356;2.718;2022-08-25T07:36:35;23.40;99.90
23405;DHT22;11875;49.356;2.718;2022-08-25T07:39:01;23.40;99.90
23405;DHT22;11875;49.356;2.718;2022-08-25T07:41:31;23.60;99.90
23405;DHT22;11875;49.356;2.718;2022-08-25T07:43:58;23.70;99.90
23405;DHT22;11875;49.356;2.718;2022-08-25T07:46:23;23.90;99.90
23405;DHT22;11875;49.356;2.718;2022-08-25T07:48:49;24.20;99.90
23405;DHT22;11875;49.356;2.718;2022-08-25T07:51:14;24.60;98.80
23405;DHT22;11875;49.356;2.718;2022-08-25T07:53:42;25.00;97.40
23405;DHT22;11875;49.356;2.718;2022-08-25T07:56:10;25.40;96.80
23405;DHT22;11875;49.356;2.718;2022-08-25T07:58:36;26.00;95.60
23405;DHT22;11875;49.356;2.718;2022-08-25T08:01:02;26.30;94.70
23405;DHT22;11875;49.356;2.718;2022-08-25T08:03:27;26.70;92.80
23405;DHT22;11875;49.356;2.718;2022-08-25T08:05:54;27.10;91.00
23405;DHT22;11875;49.356;2.718;2022-08-25T08:08:21;27.30;90.70
23405;DHT22;11875;49.356;2.718;2022-08-25T08:10:46;27.40;89.60
23405;DHT22;11875;49.356;2.718;2022-08-25T08:13:12;27.50;89.00
23405;DHT22;11875;49.356;2.718;2022-08-25T08:15:41;27.60;88.00
23405;DHT22;11875;49.356;2.718;2022-08-25T08:18:07;27.60;86.90
23405;DHT22;11875;49.356;2.718;2022-08-25T08:20:33;27.60;86.40
23405;DHT22;11875;49.356;2.718;2022-08-25T08:22:59;27.70;86.90
23405;DHT22;11875;49.356;2.718;2022-08-25T08:25:25;27.70;86.00
23405;DHT22;11875;49.356;2.718;2022-08-25T08:27:51;27.90;89.70
23405;DHT22;11875;49.356;2.718;2022-08-25T08:30:16;28.00;87.10
23405;DHT22;11875;49.356;2.718;2022-08-25T08:32:42;28.10;85.40
23405;DHT22;11875;49.356;2.718;2022-08-25T08:35:09;28.20;86.00
23405;DHT22;11875;49.356;2.718;2022-08-25T08:37:34;28.40;86.20
23405;DHT22;11875;49.356;2.718;2022-08-25T08:40:06;28.60;85.70
23405;DHT22;11875;49.356;2.718;2022-08-25T08:50:51;29.10;82.40
23405;DHT22;11875;49.356;2.718;2022-08-25T08:53:44;29.30;82.20
23405;DHT22;11875;49.356;2.718;2022-08-25T08:56:14;29.40;81.30
23405;DHT22;11875;49.356;2.718;2022-08-25T08:58:45;29.50;81.40
23405;DHT22;11875;49.356;2.718;2022-08-25T09:01:17;29.70;79.50
23405;DHT22;11875;49.356;2.718;2022-08-25T09:03:51;29.90;80.50
23405;DHT22;11875;49.356;2.718;2022-08-25T09:06:33;29.90;80.20
23405;DHT22;11875;49.356;2.718;2022-08-25T09:09:03;30.20;81.30
23405;DHT22;11875;49.356;2.718;2022-08-25T09:25:40;30.70;76.60
23405;DHT22;11875;49.356;2.718;2022-08-25T09:29:00;30.70;76.60
23405;DHT22;11875;49.356;2.718;2022-08-25T09:31:21;30.60;77.40
23405;DHT22;11875;49.356;2.718;2022-08-25T09:33:47;30.70;76.90
23405;DHT22;11875;49.356;2.718;2022-08-25T09:36:13;30.50;75.10
23405;DHT22;11875;49.356;2.718;2022-08-25T09:38:39;30.60;75.00
23405;DHT22;11875;49.356;2.718;2022-08-25T09:41:05;30.60;75.90
23405;DHT22;11875;49.356;2.718;2022-08-25T09:43:38;30.70;76.10
23405;DHT22;11875;49.356;2.718;2022-08-25T09:53:35;30.90;75.10
23405;DHT22;11875;49.356;2.718;2022-08-25T09:56:09;31.00;74.90
23405;DHT22;11875;49.356;2.718;2022-08-25T09:58:34;31.00;75.10
23405;DHT22;11875;49.356;2.718;2022-08-25T10:01:13;31.00;75.50
23405;DHT22;11875;49.356;2.718;2022-08-25T10:04:03;31.00;75.40
23405;DHT22;11875;49.356;2.718;2022-08-25T10:06:41;31.00;76.10
23405;DHT22;11875;49.356;2.718;2022-08-25T10:09:20;31.10;74.80
23405;DHT22;11875;49.356;2.718;2022-08-25T10:11:47;31.30;73.80
23405;DHT22;11875;49.356;2.718;2022-08-25T10:14:18;31.40;74.40
23405;DHT22;11875;49.356;2.718;2022-08-25T10:16:46;31.50;74.20
23405;DHT22;11875;49.356;2.718;2022-08-25T10:19:22;31.50;72.30
23405;DHT22;11875;49.356;2.718;2022-08-25T10:22:09;31.60;74.10
23405;DHT22;11875;49.356;2.718;2022-08-25T10:24:37;31.60;74.20
23405;DHT22;11875;49.356;2.718;2022-08-25T10:32:54;31.60;74.80
23405;DHT22;11875;49.356;2.718;2022-08-25T10:35:28;31.60;73.80
23405;DHT22;11875;49.356;2.718;2022-08-25T10:40:47;31.70;72.50
23405;DHT22;11875;49.356;2.718;2022-08-25T10:49:13;32.20;73.00
23405;DHT22;11875;49.356;2.718;2022-08-25T10:52:04;32.30;73.40
23405;DHT22;11875;49.356;2.718;2022-08-25T10:54:48;32.20;73.80
23405;DHT22;11875;49.356;2.718;2022-08-25T10:57:41;32.20;73.50
23405;DHT22;11875;49.356;2.718;2022-08-25T11:00:16;32.40;71.00
23405;DHT22;11875;49.356;2.718;2022-08-25T11:02:55;32.60;71.00
23405;DHT22;11875;49.356;2.718;2022-08-25T11:05:33;32.80;70.60
23405;DHT22;11875;49.356;2.718;2022-08-25T11:08:13;32.80;69.10
23405;DHT22;11875;49.356;2.718;2022-08-25T11:10:45;32.80;68.40
23405;DHT22;11875;49.356;2.718;2022-08-25T11:13:17;32.80;68.20
23405;DHT22;11875;49.356;2.718;2022-08-25T11:15:51;32.80;67.80
23405;DHT22;11875;49.356;2.718;2022-08-25T11:18:19;32.70;67.70
23405;DHT22;11875;49.356;2.718;2022-08-25T11:23:45;32.70;67.90
23405;DHT22;11875;49.356;2.718;2022-08-25T11:26:18;32.70;68.10
23405;DHT22;11875;49.356;2.718;2022-08-25T11:31:21;32.90;67.10
23405;DHT22;11875;49.356;2.718;2022-08-25T11:33:49;32.90;66.60
23405;DHT22;11875;49.356;2.718;2022-08-25T11:36:33;33.00;66.20
23405;DHT22;11875;49.356;2.718;2022-08-25T11:49:48;33.30;68.00
23405;DHT22;11875;49.356;2.718;2022-08-25T11:57:48;33.40;66.70
23405;DHT22;11875;49.356;2.718;2022-08-25T12:06:23;33.60;66.40
23405;DHT22;11875;49.356;2.718;2022-08-25T12:30:19;34.10;65.70
23405;DHT22;11875;49.356;2.718;2022-08-25T12:32:50;34.20;64.50
23405;DHT22;11875;49.356;2.718;2022-08-25T12:35:28;34.00;64.30
23405;DHT22;11875;49.356;2.718;2022-08-25T12:38:09;34.00;64.60
23405;DHT22;11875;49.356;2.718;2022-08-25T12:43:39;34.10;63.10
23405;DHT22;11875;49.356;2.718;2022-08-25T12:51:46;34.30;63.30
23405;DHT22;11875;49.356;2.718;2022-08-25T12:57:04;34.60;64.40
23405;DHT22;11875;49.356;2.718;2022-08-25T12:59:41;34.50;63.80
23405;DHT22;11875;49.356;2.718;2022-08-25T13:02:37;34.50;64.50
23405;DHT22;11875;49.356;2.718;2022-08-25T13:10:55;34.70;65.40
23405;DHT22;11875;49.356;2.718;2022-08-25T13:16:20;34.50;65.00
23405;DHT22;11875;49.356;2.718;2022-08-25T13:18:46;34.60;66.50
23405;DHT22;11875;49.356;2.718;2022-08-25T13:21:27;34.50;67.70
23405;DHT22;11875;49.356;2.718;2022-08-25T13:23:54;34.50;67.30
23405;DHT22;11875;49.356;2.718;2022-08-25T13:26:42;34.40;67.40
23405;DHT22;11875;49.356;2.718;2022-08-25T13:31:36;34.20;69.50
23405;DHT22;11875;49.356;2.718;2022-08-25T13:34:08;34.20;70.10
23405;DHT22;11875;49.356;2.718;2022-08-25T13:36:43;34.10;70.70
23405;DHT22;11875;49.356;2.718;2022-08-25T13:39:29;33.80;70.70
23405;DHT22;11875;49.356;2.718;2022-08-25T13:44:28;33.70;70.90
23405;DHT22;11875;49.356;2.718;2022-08-25T13:47:12;33.70;71.10
23405;DHT22;11875;49.356;2.718;2022-08-25T13:49:41;33.70;70.70
23405;DHT22;11875;49.356;2.718;2022-08-25T13:52:27;33.70;70.00
23405;DHT22;11875;49.356;2.718;2022-08-25T13:55:00;33.80;70.20
23405;DHT22;11875;49.356;2.718;2022-08-25T13:57:28;34.00;70.90
23405;DHT22;11875;49.356;2.718;2022-08-25T14:00:00;34.00;70.20
23405;DHT22;11875;49.356;2.718;2022-08-25T14:02:47;33.80;70.70
23405;DHT22;11875;49.356;2.718;2022-08-25T14:05:15;33.80;71.60
23405;DHT22;11875;49.356;2.718;2022-08-25T14:07:53;33.80;71.60
23405;DHT22;11875;49.356;2.718;2022-08-25T14:10:43;33.80;70.30
23405;DHT22;11875;49.356;2.718;2022-08-25T14:13:15;33.80;69.50
23405;DHT22;11875;49.356;2.718;2022-08-25T14:15:43;33.70;69.30
23405;DHT22;11875;49.356;2.718;2022-08-25T14:18:28;33.70;70.40
23405;DHT22;11875;49.356;2.718;2022-08-25T14:20:55;33.80;70.80
23405;DHT22;11875;49.356;2.718;2022-08-25T14:23:28;33.70;70.20
23405;DHT22;11875;49.356;2.718;2022-08-25T14:25:56;33.70;70.90
23405;DHT22;11875;49.356;2.718;2022-08-25T14:28:25;33.70;70.80
23405;DHT22;11875;49.356;2.718;2022-08-25T14:30:58;33.70;70.20
23405;DHT22;11875;49.356;2.718;2022-08-25T14:33:37;33.60;69.80
23405;DHT22;11875;49.356;2.718;2022-08-25T14:36:04;33.60;70.80
23405;DHT22;11875;49.356;2.718;2022-08-25T14:38:32;33.50;71.90
23405;DHT22;11875;49.356;2.718;2022-08-25T14:40:58;33.40;72.80
23405;DHT22;11875;49.356;2.718;2022-08-25T14:43:24;33.40;73.70
23405;DHT22;11875;49.356;2.718;2022-08-25T14:45:50;33.40;73.70
23405;DHT22;11875;49.356;2.718;2022-08-25T14:50:46;33.50;76.20
23405;DHT22;11875;49.356;2.718;2022-08-25T14:53:11;33.60;78.20
23405;DHT22;11875;49.356;2.718;2022-08-25T14:55:37;33.70;79.60
23405;DHT22;11875;49.356;2.718;2022-08-25T14:58:03;33.70;80.20
23405;DHT22;11875;49.356;2.718;2022-08-25T15:00:29;33.70;79.80
23405;DHT22;11875;49.356;2.718;2022-08-25T15:02:55;33.80;79.70
23405;DHT22;11875;49.356;2.718;2022-08-25T15:05:25;33.70;80.10
23405;DHT22;11875;49.356;2.718;2022-08-25T15:07:52;33.50;79.70
23405;DHT22;11875;49.356;2.718;2022-08-25T15:10:37;33.30;80.50
23405;DHT22;11875;49.356;2.718;2022-08-25T15:13:03;33.20;80.10
23405;DHT22;11875;49.356;2.718;2022-08-25T15:15:31;33.20;81.60
23405;DHT22;11875;49.356;2.718;2022-08-25T15:17:57;33.10;82.20
23405;DHT22;11875;49.356;2.718;2022-08-25T15:20:23;32.90;82.80
23405;DHT22;11875;49.356;2.718;2022-08-25T15:22:48;32.90;83.20
23405;DHT22;11875;49.356;2.718;2022-08-25T15:25:14;32.90;83.10
23405;DHT22;11875;49.356;2.718;2022-08-25T15:27:40;32.80;83.30
23405;DHT22;11875;49.356;2.718;2022-08-25T15:30:06;32.80;83.90
23405;DHT22;11875;49.356;2.718;2022-08-25T15:32:32;32.60;82.80
23405;DHT22;11875;49.356;2.718;2022-08-25T15:34:58;32.40;83.30
23405;DHT22;11875;49.356;2.718;2022-08-25T15:37:25;32.40;83.50
23405;DHT22;11875;49.356;2.718;2022-08-25T15:39:50;32.40;83.30
23405;DHT22;11875;49.356;2.718;2022-08-25T15:42:16;32.30;83.40
23405;DHT22;11875;49.356;2.718;2022-08-25T15:44:42;32.20;83.20
23405;DHT22;11875;49.356;2.718;2022-08-25T15:47:08;32.10;83.40
23405;DHT22;11875;49.356;2.718;2022-08-25T15:49:34;32.00;83.40
23405;DHT22;11875;49.356;2.718;2022-08-25T15:52:00;31.90;83.40
23405;DHT22;11875;49.356;2.718;2022-08-25T15:54:27;31.80;83.70
23405;DHT22;11875;49.356;2.718;2022-08-25T15:56:54;31.70;84.00
23405;DHT22;11875;49.356;2.718;2022-08-25T15:59:20;31.60;84.60
23405;DHT22;11875;49.356;2.718;2022-08-25T16:01:45;31.50;84.20
23405;DHT22;11875;49.356;2.718;2022-08-25T16:04:12;31.30;84.30
23405;DHT22;11875;49.356;2.718;2022-08-25T16:06:39;31.20;84.20
23405;DHT22;11875;49.356;2.718;2022-08-25T16:09:05;31.20;84.30
23405;DHT22;11875;49.356;2.718;2022-08-25T16:11:32;31.10;84.50
23405;DHT22;11875;49.356;2.718;2022-08-25T16:14:00;31.10;84.50
23405;DHT22;11875;49.356;2.718;2022-08-25T16:16:27;31.10;84.60
23405;DHT22;11875;49.356;2.718;2022-08-25T16:18:54;31.00;84.40
23405;DHT22;11875;49.356;2.718;2022-08-25T16:21:24;30.90;84.40
23405;DHT22;11875;49.356;2.718;2022-08-25T16:23:55;30.80;84.50
23405;DHT22;11875;49.356;2.718;2022-08-25T16:26:22;30.80;84.70
23405;DHT22;11875;49.356;2.718;2022-08-25T16:28:47;30.60;84.80
23405;DHT22;11875;49.356;2.718;2022-08-25T16:31:15;30.60;84.90
23405;DHT22;11875;49.356;2.718;2022-08-25T16:33:42;30.60;84.70
23405;DHT22;11875;49.356;2.718;2022-08-25T16:38:35;30.40;85.00
23405;DHT22;11875;49.356;2.718;2022-08-25T16:41:13;30.40;85.00
23405;DHT22;11875;49.356;2.718;2022-08-25T16:43:42;30.30;84.80
23405;DHT22;11875;49.356;2.718;2022-08-25T16:46:11;30.40;85.60
23405;DHT22;11875;49.356;2.718;2022-08-25T16:48:38;30.30;84.70
23405;DHT22;11875;49.356;2.718;2022-08-25T16:51:16;30.30;84.80
23405;DHT22;11875;49.356;2.718;2022-08-25T16:53:42;30.30;84.60
23405;DHT22;11875;49.356;2.718;2022-08-25T16:56:27;30.30;84.70
23405;DHT22;11875;49.356;2.718;2022-08-25T16:58:53;30.30;84.90
23405;DHT22;11875;49.356;2.718;2022-08-25T17:01:20;30.30;84.60
23405;DHT22;11875;49.356;2.718;2022-08-25T17:03:47;30.20;84.50
23405;DHT22;11875;49.356;2.718;2022-08-25T17:06:13;30.20;84.50
23405;DHT22;11875;49.356;2.718;2022-08-25T17:08:39;30.20;84.30
23405;DHT22;11875;49.356;2.718;2022-08-25T17:11:14;30.00;84.60
23405;DHT22;11875;49.356;2.718;2022-08-25T17:13:42;30.00;84.70
23405;DHT22;11875;49.356;2.718;2022-08-25T17:16:09;29.90;84.60
23405;DHT22;11875;49.356;2.718;2022-08-25T17:18:35;29.90;84.20
23405;DHT22;11875;49.356;2.718;2022-08-25T17:21:04;29.90;84.10
23405;DHT22;11875;49.356;2.718;2022-08-25T17:23:30;29.80;83.90
23405;DHT22;11875;49.356;2.718;2022-08-25T17:25:57;29.80;84.10
23405;DHT22;11875;49.356;2.718;2022-08-25T17:28:23;29.70;83.80
23405;DHT22;11875;49.356;2.718;2022-08-25T17:30:49;29.80;83.30
23405;DHT22;11875;49.356;2.718;2022-08-25T17:33:15;29.80;82.90
23405;DHT22;11875;49.356;2.718;2022-08-25T17:35:43;29.70;82.70
23405;DHT22;11875;49.356;2.718;2022-08-25T17:38:09;29.70;82.70
23405;DHT22;11875;49.356;2.718;2022-08-25T17:40:36;29.60;82.70
23405;DHT22;11875;49.356;2.718;2022-08-25T17:43:02;29.60;82.60
23405;DHT22;11875;49.356;2.718;2022-08-25T17:45:28;29.50;82.70
23405;DHT22;11875;49.356;2.718;2022-08-25T17:47:54;29.40;82.90